Time;durP1;ratioP1;P1;durP2;ratioP2;P2;SDS_P1;SDS_P2;PMS_P1;PMS_P2;Temp;Humidity;BMP_temperature;BMP_pressure;BME280_temperature;BME280_humidity;BME280_pressure;Samples;Min_cycle;Max_cycle;Signal;HPM_P1;HPM_P2
2024/03/01 00:02:19;;;;;;;35.40;18.10;;;25.30;81.30;;;;;;5048814;28;20190;-77
2024/03/01 00:04:46;;;;;;;34.60;18.40;;;25.40;80.80;;;;;;5051772;28;20586;-76
2024/03/01 00:07:15;;;;;;;34.53;18.23;;;25.40;80.50;;;;;;5051916;28;20211;-75
2024/03/01 00:09:42;;;;;;;41.20;18.40;;;25.50;80.50;;;;;;5046140;28;20207;-76
2024/03/01 00:12:16;;;;;;;33.20;16.00;;;25.60;80.70;;;;;;5048372;28;22244;-74
2024/03/01 00:14:43;;;;;;;35.00;17.07;;;25.60;80.10;;;;;;5046643;28;20176;-77
2024/03/01 00:17:11;;;;;;;33.23;16.67;;;25.60;79.80;;;;;;5051401;28;20333;-78
2024/03/01 00:19:38;;;;;;;35.07;15.23;;;25.70;80.20;;;;;;5044016;28;20185;-76
2024/03/01 00:22:05;;;;;;;29.70;17.23;;;25.70;80.00;;;;;;5049117;28;20530;-76
2024/03/01 00:24:33;;;;;;;39.60;15.67;;;25.80;80.30;;;;;;5051062;28;20187;-74
2024/03/01 00:27:00;;;;;;;35.07;15.43;;;25.80;79.40;;;;;;5049697;28;20551;-75
2024/03/01 00:29:27;;;;;;;35.23;14.73;;;25.90;79.70;;;;;;5049926;28;20199;-76
2024/03/01 00:31:54;;;;;;;30.43;14.33;;;25.90;78.80;;;;;;5047678;28;20231;-77
2024/03/01 00:34:24;;;;;;;32.90;13.53;;;26.00;79.00;;;;;;5048890;28;20195;-75
2024/03/01 00:36:52;;;;;;;32.80;13.23;;;26.00;78.90;;;;;;5049582;28;20196;-74
2024/03/01 00:39:20;;;;;;;37.10;13.70;;;26.00;78.80;;;;;;5049778;28;20176;-76
2024/03/01 00:41:48;;;;;;;29.70;13.27;;;26.00;79.10;;;;;;5048646;28;20194;-77
2024/03/01 00:44:15;;;;;;;29.03;13.03;;;25.90;79.10;;;;;;5044987;28;20744;-75
2024/03/01 00:46:45;;;;;;;32.07;13.20;;;25.90;79.40;;;;;;5050204;28;20188;-77
2024/03/01 00:49:13;;;;;;;34.70;12.27;;;25.90;79.10;;;;;;5048430;28;20268;-76
2024/03/01 00:51:40;;;;;;;34.27;12.83;;;25.90;79.30;;;;;;5048058;28;20237;-77
2024/03/01 00:54:10;;;;;;;36.60;13.47;;;25.90;79.30;;;;;;5048308;28;20211;-76
2024/03/01 00:56:38;;;;;;;34.23;13.83;;;25.90;79.40;;;;;;5047529;28;20659;-76
2024/03/01 00:59:06;;;;;;;36.77;13.00;;;25.90;79.00;;;;;;5046788;28;20176;-74
2024/03/01 01:01:45;;;;;;;29.80;13.30;;;25.80;79.20;;;;;;5050325;28;20677;-77
2024/03/01 01:04:15;;;;;;;32.47;12.20;;;25.80;79.20;;;;;;5049517;28;20180;-78
2024/03/01 01:06:42;;;;;;;31.97;11.47;;;25.80;78.80;;;;;;5046952;28;20173;-77
2024/03/01 01:09:11;;;;;;;32.73;11.57;;;25.80;78.60;;;;;;5050234;28;20654;-75
2024/03/01 01:11:38;;;;;;;37.80;12.50;;;25.90;78.60;;;;;;5031735;28;20219;-75
2024/03/01 01:14:06;;;;;;;28.63;10.53;;;26.30;78.30;;;;;;5047877;28;20639;-76
2024/03/01 01:16:33;;;;;;;32.63;9.70;;;26.50;76.60;;;;;;5045833;28;20195;-76
2024/03/01 01:19:04;;;;;;;32.10;9.23;;;26.80;76.20;;;;;;5047117;28;20196;-74
2024/03/01 01:21:32;;;;;;;28.90;8.53;;;27.00;75.70;;;;;;5044863;28;20246;-77
2024/03/01 01:24:00;;;;;;;24.30;8.43;;;27.00;75.00;;;;;;5050548;28;20179;-76
2024/03/01 01:26:27;;;;;;;33.77;8.70;;;27.00;74.70;;;;;;5050148;28;20188;-75
2024/03/01 01:28:55;;;;;;;25.90;8.07;;;26.90;74.70;;;;;;5047048;28;20181;-75
2024/03/01 01:31:24;;;;;;;29.83;7.97;;;26.80;74.80;;;;;;5028388;28;20232;-75
2024/03/01 01:33:51;;;;;;;27.07;8.53;;;26.80;74.70;;;;;;5048538;28;20198;-76
2024/03/01 01:36:22;;;;;;;25.73;8.10;;;27.00;75.50;;;;;;5047246;28;20187;-76
2024/03/01 01:38:52;;;;;;;24.63;7.27;;;26.90;74.40;;;;;;5045575;28;20274;-76
2024/03/01 01:41:19;;;;;;;27.17;8.03;;;26.80;74.80;;;;;;5046884;28;20175;-77
2024/03/01 01:43:47;;;;;;;24.03;7.00;;;27.00;75.10;;;;;;5046567;28;20176;-76
2024/03/01 01:46:16;;;;;;;23.30;7.37;;;27.20;74.80;;;;;;5037489;28;20516;-75
2024/03/01 01:48:46;;;;;;;32.50;8.13;;;27.30;73.80;;;;;;5048880;28;20207;-77
2024/03/01 01:51:15;;;;;;;27.33;6.70;;;27.50;73.30;;;;;;5045280;28;20252;-76
2024/03/01 01:53:44;;;;;;;32.17;6.80;;;27.70;72.90;;;;;;5048021;28;20199;-75
2024/03/01 01:56:14;;;;;;;26.60;7.13;;;27.60;72.70;;;;;;5047544;28;20191;-74
2024/03/01 01:58:43;;;;;;;22.00;6.27;;;27.50;72.80;;;;;;5047108;28;20263;-75
2024/03/01 02:01:15;;;;;;;28.77;6.47;;;27.30;73.60;;;;;;5046793;28;20779;-74
2024/03/01 02:03:43;;;;;;;34.73;6.10;;;27.30;73.40;;;;;;5048191;28;20585;-75
2024/03/01 02:06:14;;;;;;;27.83;6.60;;;27.30;74.00;;;;;;5046155;28;20188;-74
2024/03/01 02:08:44;;;;;;;35.27;7.63;;;26.90;75.10;;;;;;5045416;28;20206;-73
2024/03/01 02:11:11;;;;;;;22.80;6.03;;;26.80;75.20;;;;;;5044846;28;20281;-75
2024/03/01 02:13:39;;;;;;;29.27;7.53;;;26.80;74.80;;;;;;5047392;28;20192;-75
2024/03/01 02:16:08;;;;;;;35.83;7.87;;;26.80;76.00;;;;;;5049323;28;20665;-75
2024/03/01 02:18:35;;;;;;;27.73;6.57;;;27.10;75.40;;;;;;5030958;28;20191;-76
2024/03/01 02:21:10;;;;;;;28.00;7.00;;;27.40;73.50;;;;;;5046548;28;20227;-74
2024/03/01 02:23:38;;;;;;;27.00;7.00;;;27.30;73.10;;;;;;5046696;28;20187;-75
2024/03/01 02:26:09;;;;;;;25.37;6.20;;;27.50;74.30;;;;;;5049408;28;20180;-75
2024/03/01 02:28:44;;;;;;;30.70;8.03;;;27.10;74.60;;;;;;5046425;28;20920;-73
2024/03/01 02:31:12;;;;;;;21.33;6.40;;;27.30;74.30;;;;;;5047563;28;20261;-75
2024/03/01 02:33:39;;;;;;;27.47;6.57;;;27.40;74.30;;;;;;5046241;28;20275;-74
2024/03/01 02:36:07;;;;;;;30.00;7.57;;;27.50;74.00;;;;;;5042460;28;20180;-73
2024/03/01 02:38:34;;;;;;;24.53;6.07;;;27.80;73.00;;;;;;5045945;28;20183;-76
2024/03/01 02:41:02;;;;;;;24.20;5.83;;;28.00;72.00;;;;;;5049623;28;20642;-73
2024/03/01 02:43:29;;;;;;;27.10;6.23;;;27.80;71.60;;;;;;5048629;28;20258;-74
2024/03/01 02:45:58;;;;;;;22.83;6.27;;;27.50;73.20;;;;;;5040817;28;20263;-76
2024/03/01 02:48:25;;;;;;;21.93;5.90;;;27.90;72.40;;;;;;5048709;28;20203;-75
2024/03/01 02:50:59;;;;;;;27.53;5.80;;;27.80;73.30;;;;;;5045932;28;20216;-76
2024/03/01 02:53:26;;;;;;;21.17;4.80;;;27.80;71.90;;;;;;5048217;28;20553;-74
2024/03/01 02:55:56;;;;;;;18.50;5.13;;;27.80;71.50;;;;;;5050536;28;20195;-75
2024/03/01 02:58:24;;;;;;;27.33;6.00;;;27.90;72.30;;;;;;5053248;28;20234;-73
2024/03/01 03:00:54;;;;;;;24.77;5.33;;;28.00;71.40;;;;;;5048709;28;20184;-75
2024/03/01 03:03:21;;;;;;;17.43;4.83;;;27.90;72.00;;;;;;5051643;28;20180;-74
2024/03/01 03:05:48;;;;;;;21.87;5.10;;;28.00;71.80;;;;;;5051837;28;20175;-75
2024/03/01 03:08:17;;;;;;;23.17;5.70;;;27.70;72.60;;;;;;5052194;28;20219;-74
2024/03/01 03:10:44;;;;;;;25.10;6.23;;;27.80;72.60;;;;;;5049273;28;20239;-73
2024/03/01 03:13:11;;;;;;;24.17;5.90;;;27.80;72.60;;;;;;5049625;28;20600;-74
2024/03/01 03:15:38;;;;;;;18.80;4.70;;;28.10;71.20;;;;;;5049743;28;20194;-73
2024/03/01 03:18:06;;;;;;;22.57;5.67;;;28.30;70.30;;;;;;5050071;28;20177;-72
2024/03/01 03:20:35;;;;;;;19.53;5.37;;;28.30;70.70;;;;;;5051001;28;20279;-72
2024/03/01 03:23:02;;;;;;;24.10;5.43;;;27.70;72.50;;;;;;5046521;28;20219;-73
2024/03/01 03:25:31;;;;;;;18.03;4.67;;;27.50;73.20;;;;;;5049153;28;20198;-73
2024/03/01 03:28:00;;;;;;;20.70;5.07;;;27.70;72.60;;;;;;5034074;28;20184;-75
2024/03/01 03:30:28;;;;;;;19.53;5.67;;;27.50;73.30;;;;;;5048425;28;20261;-73
2024/03/01 03:32:56;;;;;;;25.73;5.83;;;27.70;73.30;;;;;;5050958;28;20242;-75
2024/03/01 03:35:26;;;;;;;19.87;5.00;;;27.80;72.30;;;;;;5051615;28;20184;-73
2024/03/01 03:37:53;;;;;;;17.03;5.03;;;27.80;73.20;;;;;;5052315;28;20271;-74
2024/03/01 03:40:22;;;;;;;24.80;6.50;;;28.10;72.00;;;;;;5049987;28;20195;-72
2024/03/01 03:42:49;;;;;;;22.67;5.37;;;28.00;72.00;;;;;;5049232;28;20556;-74
2024/03/01 03:45:19;;;;;;;21.00;4.97;;;28.30;71.00;;;;;;5049153;28;20193;-74
2024/03/01 03:47:47;;;;;;;18.63;5.77;;;28.30;70.30;;;;;;5050544;28;20175;-73
2024/03/01 03:50:15;;;;;;;28.33;5.37;;;28.40;70.00;;;;;;5048466;28;20292;-74
2024/03/01 03:52:44;;;;;;;18.53;5.27;;;28.30;70.50;;;;;;5051226;28;20583;-75
2024/03/01 03:55:12;;;;;;;19.37;4.80;;;28.30;69.90;;;;;;5048255;28;20244;-75
2024/03/01 03:57:40;;;;;;;23.83;5.13;;;28.30;70.40;;;;;;5046410;28;20187;-76
2024/03/01 04:00:14;;;;;;;19.30;4.63;;;28.40;70.50;;;;;;5043094;28;20692;-76
2024/03/01 04:02:45;;;;;;;19.23;4.83;;;28.40;70.10;;;;;;5048241;28;20254;-76
2024/03/01 04:05:13;;;;;;;18.53;4.87;;;28.40;69.70;;;;;;5043614;28;20700;-75
2024/03/01 04:07:43;;;;;;;21.17;5.00;;;28.30;70.50;;;;;;5046757;28;20206;-74
2024/03/01 04:10:14;;;;;;;17.83;4.90;;;28.40;69.70;;;;;;5041414;28;20212;-74
2024/03/01 04:12:45;;;;;;;20.47;5.30;;;28.30;70.50;;;;;;5048578;28;20705;-76
2024/03/01 04:15:15;;;;;;;19.10;4.67;;;28.30;70.50;;;;;;5046083;28;20187;-75
2024/03/01 04:17:44;;;;;;;14.00;4.33;;;28.20;71.10;;;;;;5047749;28;20187;-75
2024/03/01 04:20:12;;;;;;;17.67;5.03;;;28.40;70.70;;;;;;5046777;28;20677;-75
2024/03/01 04:22:42;;;;;;;21.00;4.83;;;28.40;70.50;;;;;;5048492;28;20180;-74
2024/03/01 04:25:09;;;;;;;18.47;5.13;;;28.40;70.50;;;;;;5044382;28;20180;-75
2024/03/01 04:27:40;;;;;;;17.93;4.30;;;28.40;70.70;;;;;;5042746;28;20180;-75
2024/03/01 04:30:10;;;;;;;17.63;4.10;;;28.00;72.20;;;;;;5044338;28;20293;-73
2024/03/01 04:32:38;;;;;;;13.83;3.83;;;27.90;72.40;;;;;;5046284;28;20183;-75
2024/03/01 04:35:05;;;;;;;17.00;4.83;;;27.70;72.80;;;;;;5045274;28;20241;-78
2024/03/01 04:37:33;;;;;;;22.17;4.90;;;27.80;73.10;;;;;;5047450;28;20176;-76
2024/03/01 04:40:00;;;;;;;15.43;4.23;;;27.90;72.60;;;;;;5050937;28;20187;-75
2024/03/01 04:42:27;;;;;;;17.43;4.73;;;27.80;73.40;;;;;;5049156;28;20195;-75
2024/03/01 04:44:55;;;;;;;17.27;5.10;;;27.90;73.10;;;;;;5020940;28;20578;-75
2024/03/01 04:47:25;;;;;;;14.57;4.33;;;28.00;72.50;;;;;;5045002;28;20242;-75
2024/03/01 04:49:52;;;;;;;16.50;4.07;;;28.00;71.90;;;;;;5029041;28;20211;-75
2024/03/01 04:52:25;;;;;;;18.13;4.97;;;27.80;72.50;;;;;;5043807;28;20530;-75
2024/03/01 04:54:53;;;;;;;17.53;4.27;;;27.80;72.70;;;;;;5048998;28;20208;-76
2024/03/01 04:57:20;;;;;;;16.57;4.70;;;27.70;72.80;;;;;;5046334;28;20255;-74
2024/03/01 04:59:48;;;;;;;16.17;4.30;;;27.60;73.90;;;;;;5048800;28;20178;-76
2024/03/01 05:02:16;;;;;;;16.20;4.67;;;27.60;73.70;;;;;;5046836;28;20219;-74
2024/03/01 05:04:43;;;;;;;12.70;4.43;;;27.50;73.90;;;;;;5043096;28;20188;-75
2024/03/01 05:07:12;;;;;;;12.17;3.87;;;27.50;74.00;;;;;;5049127;28;20266;-73
2024/03/01 05:09:42;;;;;;;22.63;4.93;;;27.50;74.40;;;;;;5041499;28;20237;-74
2024/03/01 05:12:13;;;;;;;17.37;4.83;;;27.60;74.20;;;;;;5040848;28;20192;-76
2024/03/01 05:14:43;;;;;;;20.23;5.30;;;27.60;74.40;;;;;;5049353;28;20241;-75
2024/03/01 05:17:13;;;;;;;23.10;5.70;;;27.90;74.00;;;;;;5039173;28;20180;-74
2024/03/01 05:19:41;;;;;;;22.70;4.90;;;27.90;73.50;;;;;;5043084;28;20172;-75
2024/03/01 05:22:12;;;;;;;17.40;5.37;;;28.00;73.50;;;;;;5041160;28;20634;-74
2024/03/01 05:24:40;;;;;;;16.73;4.33;;;28.00;73.70;;;;;;5045640;28;20258;-73
2024/03/01 05:27:13;;;;;;;17.93;4.70;;;28.10;72.80;;;;;;5045783;28;20192;-75
2024/03/01 05:29:40;;;;;;;18.43;5.67;;;28.10;73.00;;;;;;5038989;28;20188;-74
2024/03/01 05:32:08;;;;;;;23.60;5.33;;;28.40;72.70;;;;;;5046167;28;20225;-77
2024/03/01 05:34:35;;;;;;;23.17;5.50;;;28.60;72.60;;;;;;5033680;28;20195;-76
2024/03/01 05:37:03;;;;;;;18.93;5.10;;;28.70;72.10;;;;;;5047073;28;20184;-76
2024/03/01 05:39:31;;;;;;;21.33;5.17;;;28.90;71.20;;;;;;5047660;28;20237;-74
2024/03/01 05:42:01;;;;;;;20.87;5.97;;;28.90;71.20;;;;;;5032330;28;20274;-75
2024/03/01 05:44:29;;;;;;;19.07;5.67;;;29.30;70.50;;;;;;5046160;28;20266;-75
2024/03/01 05:46:56;;;;;;;18.47;5.40;;;29.30;69.80;;;;;;5044256;28;20190;-74
2024/03/01 05:49:24;;;;;;;19.53;4.67;;;29.20;70.30;;;;;;5043764;28;20651;-73
2024/03/01 05:51:51;;;;;;;21.77;5.87;;;29.30;69.70;;;;;;5042582;28;20208;-74
2024/03/01 05:54:24;;;;;;;18.40;5.93;;;29.20;70.50;;;;;;5041985;28;20716;-75
2024/03/01 05:56:51;;;;;;;21.53;6.10;;;29.70;69.00;;;;;;5046787;28;20191;-75
2024/03/01 05:59:22;;;;;;;21.60;5.67;;;29.70;68.70;;;;;;5039443;28;20184;-73
2024/03/01 06:01:51;;;;;;;15.75;5.32;;;30.30;67.20;;;;;;5044284;28;20172;-75
2024/03/01 06:04:18;;;;;;;15.05;5.35;;;29.70;68.80;;;;;;5045432;28;20187;-75
2024/03/01 06:06:45;;;;;;;19.37;5.43;;;30.10;67.30;;;;;;5040368;28;20311;-73
2024/03/01 06:09:13;;;;;;;16.17;5.05;;;29.90;68.40;;;;;;5048427;28;20237;-74
2024/03/01 06:11:43;;;;;;;20.70;6.30;;;29.50;69.10;;;;;;5036570;28;20228;-73
2024/03/01 06:14:13;;;;;;;21.20;6.68;;;28.90;70.60;;;;;;5046938;28;20188;-72
2024/03/01 06:16:40;;;;;;;22.95;6.55;;;28.70;71.30;;;;;;5040414;28;20542;-72
2024/03/01 06:19:07;;;;;;;21.60;7.40;;;28.70;71.80;;;;;;5040409;28;20168;-72
2024/03/01 06:21:35;;;;;;;22.43;8.00;;;28.50;71.90;;;;;;5044430;28;20192;-74
2024/03/01 06:24:02;;;;;;;23.17;8.57;;;28.60;72.30;;;;;;5044216;28;20176;-75
2024/03/01 06:26:29;;;;;;;24.60;10.03;;;28.90;71.80;;;;;;5041296;28;20176;-75
2024/03/01 06:28:57;;;;;;;24.87;9.63;;;29.30;70.50;;;;;;5046237;28;20539;-74
2024/03/01 06:31:27;;;;;;;27.70;9.97;;;29.80;69.60;;;;;;5037491;28;20267;-74
2024/03/01 06:33:54;;;;;;;21.70;10.13;;;29.50;69.60;;;;;;5041701;28;20214;-76
2024/03/01 06:36:22;;;;;;;28.80;10.93;;;29.10;70.60;;;;;;5027356;28;20254;-71
2024/03/01 06:38:49;;;;;;;21.87;10.83;;;29.00;71.40;;;;;;5045813;28;20180;-72
2024/03/01 06:41:18;;;;;;;24.80;11.27;;;28.80;71.00;;;;;;5045097;28;20192;-73
2024/03/01 06:43:46;;;;;;;28.90;12.03;;;28.50;72.90;;;;;;5025288;28;20588;-73
2024/03/01 06:46:13;;;;;;;31.57;12.97;;;28.20;73.50;;;;;;5046744;28;20195;-74
2024/03/01 06:48:42;;;;;;;27.60;13.40;;;27.80;74.50;;;;;;5043568;28;20272;-73
2024/03/01 06:51:14;;;;;;;30.87;14.67;;;27.80;75.20;;;;;;5046209;28;20297;-75
2024/03/01 06:53:43;;;;;;;24.00;13.33;;;27.60;75.50;;;;;;5046862;28;20184;-74
2024/03/01 06:56:13;;;;;;;30.00;14.07;;;27.70;75.30;;;;;;5025887;28;20606;-76
2024/03/01 06:58:44;;;;;;;28.20;14.60;;;27.50;75.60;;;;;;5044141;28;20184;-74
2024/03/01 07:01:11;;;;;;;31.20;16.43;;;27.40;75.50;;;;;;5046527;28;20234;-72
2024/03/01 07:03:38;;;;;;;29.00;16.93;;;27.30;76.00;;;;;;5047185;28;20220;-73
2024/03/01 07:06:06;;;;;;;29.93;17.43;;;27.20;76.70;;;;;;5044135;28;20244;-73
2024/03/01 07:08:34;;;;;;;32.40;17.77;;;27.20;76.70;;;;;;5048319;28;20184;-75
2024/03/01 07:11:03;;;;;;;32.37;17.90;;;27.20;76.70;;;;;;5044204;28;20219;-74
2024/03/01 07:13:33;;;;;;;31.60;19.40;;;27.10;77.00;;;;;;5044529;28;20699;-74
2024/03/01 07:16:00;;;;;;;32.90;17.93;;;27.00;77.10;;;;;;5026624;28;20267;-76
2024/03/01 07:18:28;;;;;;;36.17;20.10;;;27.00;77.50;;;;;;5045584;28;20207;-75
2024/03/01 07:20:58;;;;;;;38.50;21.37;;;27.00;77.00;;;;;;5047224;28;20551;-73
2024/03/01 07:23:25;;;;;;;36.97;19.57;;;26.90;77.60;;;;;;5047596;28;20180;-75
2024/03/01 07:25:52;;;;;;;38.83;20.80;;;26.90;77.70;;;;;;5044946;28;20196;-74
2024/03/01 07:28:20;;;;;;;36.83;19.77;;;26.90;77.90;;;;;;5042735;28;20188;-73
2024/03/01 07:30:47;;;;;;;33.13;19.97;;;26.80;78.10;;;;;;5044909;28;20299;-76
2024/03/01 07:33:17;;;;;;;34.23;20.07;;;26.80;78.40;;;;;;5020904;28;20189;-73
2024/03/01 07:35:48;;;;;;;35.03;18.30;;;26.80;78.60;;;;;;5014728;28;20219;-73
2024/03/01 07:38:15;;;;;;;34.30;19.73;;;26.70;78.70;;;;;;5045114;28;20176;-74
2024/03/01 07:40:43;;;;;;;40.30;21.27;;;26.70;78.90;;;;;;5046525;28;20659;-74
2024/03/01 07:43:12;;;;;;;41.67;21.43;;;26.60;79.40;;;;;;5045211;28;20184;-74
2024/03/01 07:45:39;;;;;;;33.60;20.73;;;26.60;79.50;;;;;;5046579;28;20214;-76
2024/03/01 07:48:07;;;;;;;39.30;20.17;;;26.60;79.50;;;;;;5051171;28;20240;-75
2024/03/01 07:50:38;;;;;;;45.43;22.40;;;26.60;79.60;;;;;;5050851;28;20621;-76
2024/03/01 07:53:16;;;;;;;39.10;20.97;;;26.60;79.90;;;;;;5045757;28;20616;-75
2024/03/01 07:55:44;;;;;;;40.03;21.70;;;26.50;79.90;;;;;;5050301;28;20678;-75
2024/03/01 07:58:13;;;;;;;34.37;21.63;;;26.50;80.00;;;;;;5050416;28;20638;-75
2024/03/01 08:00:40;;;;;;;41.17;20.97;;;26.60;80.20;;;;;;5051183;28;20199;-75
2024/03/01 08:03:10;;;;;;;38.40;22.90;;;26.50;80.20;;;;;;5032371;28;20298;-75
2024/03/01 08:05:39;;;;;;;35.70;20.63;;;26.50;80.40;;;;;;5048386;28;20196;-74
2024/03/01 08:08:08;;;;;;;42.13;23.33;;;26.40;80.30;;;;;;5049321;28;20207;-73
2024/03/01 08:10:41;;;;;;;35.73;22.57;;;26.40;80.70;;;;;;5031242;28;20278;-74
2024/03/01 08:13:08;;;;;;;46.77;25.00;;;26.40;80.50;;;;;;5049494;28;20207;-75
2024/03/01 08:15:38;;;;;;;45.17;25.83;;;26.40;80.70;;;;;;5047668;28;20232;-74
2024/03/01 08:18:25;;;;;;;39.13;25.13;;;26.40;80.60;;;;;;5047274;28;20191;-75
2024/03/01 08:21:07;;;;;;;42.20;25.97;;;26.40;80.60;;;;;;5049130;28;20198;-74
2024/03/01 08:23:42;;;;;;;39.13;25.63;;;26.40;80.90;;;;;;5029851;28;20207;-73
2024/03/01 08:26:26;;;;;;;48.70;29.40;;;26.40;80.70;;;;;;5041469;28;20210;-73
2024/03/01 08:28:55;;;;;;;41.33;28.77;;;26.30;80.90;;;;;;5040721;28;20551;-76
2024/03/01 08:31:34;;;;;;;37.17;28.27;;;26.30;81.00;;;;;;5038042;28;20298;-75
2024/03/01 08:34:10;;;;;;;41.57;32.40;;;26.30;81.10;;;;;;5043085;28;20208;-74
2024/03/01 08:36:37;;;;;;;53.30;33.47;;;26.30;81.20;;;;;;5049255;28;20188;-75
2024/03/01 08:39:15;;;;;;;45.63;33.37;;;26.30;81.40;;;;;;5044921;28;20219;-74
2024/03/01 08:41:51;;;;;;;51.17;34.07;;;26.30;81.30;;;;;;5046610;28;20641;-74
2024/03/01 08:44:31;;;;;;;47.37;32.73;;;26.30;81.40;;;;;;5019692;28;20277;-74
2024/03/01 08:46:58;;;;;;;46.53;35.13;;;26.30;81.50;;;;;;5050636;28;20184;-77
2024/03/01 08:49:53;;;;;;;45.73;36.13;;;26.30;81.50;;;;;;5047437;28;20594;-74
2024/03/01 08:52:37;;;;;;;45.83;35.43;;;26.30;81.70;;;;;;5023667;28;20290;-75
2024/03/01 08:55:27;;;;;;;46.73;36.43;;;26.30;81.80;;;;;;5045841;28;20211;-75
2024/03/01 08:57:57;;;;;;;45.43;38.97;;;26.30;81.90;;;;;;5043172;28;20176;-75
2024/03/01 09:00:43;;;;;;;46.03;36.73;;;26.30;82.00;;;;;;5045513;28;20236;-73
2024/03/01 09:03:23;;;;;;;45.77;40.73;;;26.30;82.00;;;;;;5044475;28;20192;-75
2024/03/01 09:05:57;;;;;;;49.60;41.80;;;26.30;82.10;;;;;;5044227;28;20666;-73
2024/03/01 09:08:50;;;;;;;48.83;38.40;;;26.30;82.30;;;;;;5031494;28;20747;-75
2024/03/01 09:11:20;;;;;;;54.53;40.67;;;26.30;82.40;;;;;;5047332;28;20219;-74
2024/03/01 09:13:50;;;;;;;52.33;44.27;;;26.30;82.40;;;;;;5042000;28;20185;-74
2024/03/01 09:16:21;;;;;;;55.57;43.90;;;26.20;82.50;;;;;;5049122;28;20669;-74
2024/03/01 09:18:49;;;;;;;49.07;40.57;;;26.10;82.70;;;;;;5044170;28;20176;-75
2024/03/01 09:21:36;;;;;;;52.67;43.97;;;26.10;82.80;;;;;;5046638;28;20530;-74
2024/03/01 09:24:04;;;;;;;55.70;43.60;;;26.10;83.00;;;;;;5042136;28;20176;-75
2024/03/01 09:26:32;;;;;;;49.47;43.57;;;26.00;83.10;;;;;;5045027;28;20669;-76
2024/03/01 09:29:05;;;;;;;48.97;42.73;;;26.10;83.20;;;;;;5044793;28;20314;-74
2024/03/01 09:31:33;;;;;;;49.93;41.10;;;26.00;83.20;;;;;;5045873;28;20251;-74
2024/03/01 09:34:13;;;;;;;48.90;41.23;;;25.90;83.20;;;;;;5041071;28;20642;-74
2024/03/01 09:36:41;;;;;;;53.60;42.87;;;26.00;83.30;;;;;;5040179;28;20188;-75
2024/03/01 09:39:11;;;;;;;48.57;39.03;;;26.00;83.30;;;;;;5047554;28;20181;-74
2024/03/01 09:41:55;;;;;;;53.97;41.33;;;26.00;83.40;;;;;;5046971;28;20207;-74
2024/03/01 09:44:59;;;;;;;51.77;42.63;;;26.00;83.50;;;;;;5043194;28;20215;-74
2024/03/01 09:48:02;;;;;;;45.77;40.20;;;26.00;83.50;;;;;;5041136;28;20594;-74
2024/03/01 09:50:48;;;;;;;50.87;40.63;;;26.00;83.50;;;;;;5045747;28;20619;-74
2024/03/01 09:53:33;;;;;;;55.50;42.10;;;26.00;83.50;;;;;;5048397;28;20187;-74
2024/03/01 09:56:40;;;;;;;50.17;42.07;;;26.00;83.50;;;;;;5041135;28;20207;-75
2024/03/01 09:59:23;;;;;;;54.57;41.57;;;25.90;83.80;;;;;;4995609;28;20207;-74
2024/03/01 10:02:21;;;;;;;50.57;42.00;;;26.00;83.80;;;;;;5035883;28;20179;-73
2024/03/01 10:05:25;;;;;;;52.77;42.93;;;26.00;83.90;;;;;;5045610;28;20172;-74
2024/03/01 10:08:03;;;;;;;53.80;41.53;;;26.00;83.90;;;;;;5044869;28;20263;-72
2024/03/01 10:11:05;;;;;;;51.70;41.83;;;26.00;83.90;;;;;;5041772;28;20293;-74
2024/03/01 10:13:57;;;;;;;53.73;40.00;;;25.90;83.80;;;;;;5044013;28;20195;-73
2024/03/01 10:16:33;;;;;;;50.87;40.30;;;26.00;83.90;;;;;;5045089;28;20204;-72
2024/03/01 10:19:18;;;;;;;48.50;42.07;;;25.90;83.90;;;;;;5044888;28;20183;-74
2024/03/01 10:22:06;;;;;;;50.10;40.17;;;26.00;83.90;;;;;;5045280;28;20268;-74
2024/03/01 10:25:07;;;;;;;50.57;43.17;;;25.90;83.80;;;;;;5041465;28;20184;-74
2024/03/01 10:27:48;;;;;;;45.00;40.23;;;25.90;83.90;;;;;;5042805;28;20267;-73
2024/03/01 10:30:21;;;;;;;47.53;40.40;;;25.90;83.90;;;;;;5044380;28;20310;-74
2024/03/01 10:33:00;;;;;;;49.53;41.97;;;25.90;84.10;;;;;;5047843;28;20188;-73
2024/03/01 10:36:03;;;;;;;48.33;41.17;;;25.90;84.10;;;;;;5041686;28;20196;-73
2024/03/01 10:38:57;;;;;;;47.97;42.23;;;25.80;84.10;;;;;;5047940;28;20638;-73
2024/03/01 10:41:34;;;;;;;57.27;43.67;;;25.90;84.20;;;;;;5039275;28;20184;-75
2024/03/01 10:44:37;;;;;;;52.23;46.03;;;25.80;84.20;;;;;;5045879;28;20184;-73
2024/03/01 10:47:17;;;;;;;56.43;43.80;;;25.80;84.30;;;;;;5041141;28;20196;-73
2024/03/01 10:50:09;;;;;;;47.50;41.37;;;25.80;84.50;;;;;;5043749;28;20669;-73
2024/03/01 10:52:44;;;;;;;48.60;43.47;;;25.80;84.50;;;;;;5045205;28;20191;-72
2024/03/01 10:55:21;;;;;;;47.67;42.50;;;25.80;84.60;;;;;;5038989;28;20527;-73
2024/03/01 10:57:59;;;;;;;50.50;45.03;;;25.80;84.60;;;;;;5045542;28;20183;-73
2024/03/01 11:00:28;;;;;;;50.37;45.37;;;25.80;84.70;;;;;;5039584;28;20183;-75
2024/03/01 11:03:09;;;;;;;54.73;47.27;;;25.80;84.80;;;;;;5038209;28;20284;-72
2024/03/01 11:05:59;;;;;;;46.63;41.57;;;25.80;84.90;;;;;;5044739;28;20176;-74
2024/03/01 11:08:54;;;;;;;49.97;44.63;;;25.80;84.90;;;;;;5042803;28;20234;-73
2024/03/01 11:11:34;;;;;;;55.77;46.40;;;25.70;85.00;;;;;;5042968;28;20212;-73
2024/03/01 11:14:05;;;;;;;51.50;42.20;;;25.70;85.00;;;;;;5041681;28;20185;-76
2024/03/01 11:16:37;;;;;;;54.57;45.13;;;25.80;85.10;;;;;;5037075;28;20193;-77
2024/03/01 11:19:12;;;;;;;50.03;44.80;;;25.80;85.10;;;;;;5036887;28;20176;-73
2024/03/01 11:21:47;;;;;;;51.87;46.50;;;25.80;85.10;;;;;;5048215;28;20188;-75
2024/03/01 11:24:25;;;;;;;51.70;46.13;;;25.70;85.10;;;;;;5044463;28;20216;-75
2024/03/01 11:26:56;;;;;;;49.33;44.50;;;25.70;85.10;;;;;;5038706;28;20195;-73
2024/03/01 11:29:53;;;;;;;52.10;45.23;;;25.70;85.20;;;;;;5047913;28;20199;-74
2024/03/01 11:32:32;;;;;;;53.00;47.50;;;25.80;85.20;;;;;;5047644;28;20522;-74
2024/03/01 11:35:02;;;;;;;53.20;47.43;;;25.70;85.30;;;;;;5042172;28;20193;-73
2024/03/01 11:37:57;;;;;;;56.10;50.47;;;25.70;85.30;;;;;;5046682;28;20245;-74
2024/03/01 11:40:54;;;;;;;54.83;48.97;;;25.80;85.30;;;;;;5048971;28;20188;-73
2024/03/01 11:43:37;;;;;;;52.17;47.17;;;25.80;85.30;;;;;;5032467;28;20187;-74
2024/03/01 11:46:21;;;;;;;53.03;46.47;;;25.80;85.50;;;;;;5044268;28;20195;-74
2024/03/01 11:49:12;;;;;;;56.93;50.83;;;25.70;85.50;;;;;;5046429;28;20191;-73
2024/03/01 11:52:04;;;;;;;54.93;49.57;;;25.70;85.60;;;;;;5041029;28;20212;-74
2024/03/01 11:55:08;;;;;;;58.80;51.43;;;25.80;85.70;;;;;;5026145;28;20181;-74
2024/03/01 11:58:08;;;;;;;56.37;50.23;;;25.80;85.60;;;;;;5043448;28;20222;-75
2024/03/01 12:01:03;;;;;;;58.37;52.57;;;25.80;85.60;;;;;;5000847;28;20285;-77
2024/03/01 12:04:08;;;;;;;55.73;50.10;;;25.80;85.60;;;;;;5044727;28;20178;-74
2024/03/01 12:07:04;;;;;;;59.63;49.23;;;25.80;85.50;;;;;;5048265;28;20574;-75
2024/03/01 12:10:09;;;;;;;55.70;50.27;;;25.80;85.60;;;;;;5044293;28;20715;-73
2024/03/01 12:12:46;;;;;;;56.13;50.33;;;25.80;85.40;;;;;;5047810;28;20183;-74
2024/03/01 12:15:25;;;;;;;59.77;54.43;;;25.80;85.60;;;;;;5043036;28;20196;-76
2024/03/01 12:18:17;;;;;;;59.07;52.67;;;25.80;85.40;;;;;;5048951;28;20245;-75
2024/03/01 12:21:07;;;;;;;57.23;51.53;;;25.80;85.40;;;;;;5045022;28;20650;-75
2024/03/01 12:23:49;;;;;;;56.00;50.30;;;25.80;85.40;;;;;;5042723;28;20544;-74
2024/03/01 12:26:24;;;;;;;58.90;52.60;;;25.90;85.50;;;;;;5042948;28;20180;-74
2024/03/01 12:29:25;;;;;;;58.37;52.33;;;25.90;85.40;;;;;;5051357;28;20261;-73
2024/03/01 12:32:30;;;;;;;58.10;52.73;;;25.90;85.40;;;;;;5048700;28;20232;-75
2024/03/01 12:35:39;;;;;;;57.50;51.23;;;25.80;85.50;;;;;;5040028;28;20176;-73
2024/03/01 12:38:32;;;;;;;58.67;53.40;;;25.80;85.60;;;;;;5002696;28;20191;-73
2024/03/01 12:41:12;;;;;;;57.33;51.90;;;25.90;85.60;;;;;;5045925;28;20235;-75
2024/03/01 12:44:14;;;;;;;61.17;55.40;;;25.90;85.60;;;;;;5048786;28;20180;-73
2024/03/01 12:47:19;;;;;;;57.70;51.87;;;25.80;85.60;;;;;;5046391;28;20669;-77
2024/03/01 12:50:30;;;;;;;61.47;55.20;;;25.80;85.70;;;;;;5045939;28;20196;-75
2024/03/01 12:53:39;;;;;;;58.57;52.80;;;25.80;85.80;;;;;;5040408;28;20242;-74
2024/03/01 12:56:33;;;;;;;61.17;54.67;;;25.80;85.80;;;;;;5006626;28;20192;-75
2024/03/01 12:59:22;;;;;;;57.53;52.33;;;25.80;85.80;;;;;;5043774;28;20191;-75
2024/03/01 13:02:08;;;;;;;60.93;54.93;;;25.90;85.80;;;;;;5047394;28;20199;-73
2024/03/01 13:05:01;;;;;;;60.30;54.27;;;25.80;85.90;;;;;;5043904;28;20191;-73
2024/03/01 13:07:32;;;;;;;61.80;56.10;;;25.80;85.90;;;;;;5046196;28;20735;-74